Kimball, Texas
Current Conditions -  °F | °C
As of 8:15 PM on Friday 19 Dec 2014 (Local Time) from KCPT Reporting Station
Overcast Overcast  
Wind Chill: 44°   Ceiling: 1700
Heat Index: 46°   Visibility: 8mi
Dew Point: 46°   Wind: 5mph
Humidity: 100%   Direction: 350°N
Pressure: 30.21"   Gusts: NA
Location:  32.1115°N, 97.5857°W
Report Text: KCPT 200215Z AUTO 35004KT 8SM FEW010 OVC017 08/08 A3021 RMK AO2
Loading
Personal Weather Stations






























Interactive Weather Map New forecast layout! Learn more

10-Day Weather Forecast

Advertisements
Track Severe Weather on mobile